createdAt,value
2018-01-03T00:00:07.556Z,3.7
2018-01-03T00:01:07.821Z,3.7
2018-01-03T00:02:07.492Z,3.7
2018-01-03T00:03:07.385Z,3.8
2018-01-03T00:04:08.305Z,3.8
2018-01-03T00:05:07.504Z,3.8
2018-01-03T00:06:07.538Z,3.9
2018-01-03T00:07:07.344Z,3.9
2018-01-03T00:08:07.516Z,3.9
2018-01-03T00:09:08.251Z,3.9
2018-01-03T00:10:07.540Z,3.9
2018-01-03T00:11:08.032Z,3.9
2018-01-03T00:13:07.802Z,4.0
2018-01-03T00:14:07.328Z,4.0
2018-01-03T00:15:07.751Z,4.0
2018-01-03T00:16:08.108Z,4.1
2018-01-03T00:17:08.418Z,4.1
2018-01-03T00:18:07.485Z,4.1
2018-01-03T00:19:07.896Z,4.1
2018-01-03T00:22:07.864Z,4.1
2018-01-03T00:23:07.502Z,4.2
2018-01-03T00:24:07.504Z,4.2
2018-01-03T00:25:08.246Z,4.2
2018-01-03T00:26:07.856Z,4.2
2018-01-03T00:27:05.280Z,4.2
2018-01-03T00:28:05.224Z,4.3
2018-01-03T00:29:05.878Z,4.3
2018-01-03T00:30:07.318Z,4.3
2018-01-03T00:31:05.520Z,4.3
2018-01-03T00:32:06.198Z,4.3
2018-01-03T00:33:05.556Z,4.3
2018-01-03T00:34:05.533Z,4.3
2018-01-03T00:35:05.414Z,4.3
2018-01-03T00:36:05.518Z,4.2
2018-01-03T00:37:05.485Z,4.2
2018-01-03T00:38:05.329Z,4.2
2018-01-03T00:39:07.666Z,4.2
2018-01-03T00:40:05.737Z,4.2
2018-01-03T00:41:05.770Z,4.2
2018-01-03T00:42:05.808Z,4.2
2018-01-03T00:43:07.541Z,4.2
2018-01-03T00:44:05.549Z,4.2
2018-01-03T00:45:05.516Z,4.2
2018-01-03T00:46:05.797Z,4.1
2018-01-03T00:48:06.681Z,4.1
2018-01-03T00:49:05.594Z,4.1
2018-01-03T00:50:07.600Z,4.1
2018-01-03T00:51:07.561Z,4.1
2018-01-03T00:52:05.546Z,4.1
2018-01-03T00:53:05.830Z,4.1
2018-01-03T00:54:05.758Z,4.1
2018-01-03T00:55:05.546Z,4.1
2018-01-03T00:56:05.578Z,4.0
2018-01-03T00:57:05.363Z,4.0
2018-01-03T00:58:05.304Z,4.0
2018-01-03T00:59:06.138Z,4.0
2018-01-03T01:00:06.211Z,4.0
2018-01-03T01:01:05.684Z,4.0
2018-01-03T01:02:06.492Z,4.0
2018-01-03T01:03:05.584Z,4.0
2018-01-03T01:04:05.862Z,4.0
2018-01-03T01:05:05.560Z,4.0
2018-01-03T01:06:05.559Z,4.0
2018-01-03T01:07:05.637Z,3.9
2018-01-03T01:08:05.584Z,3.9
2018-01-03T01:09:05.518Z,3.9
2018-01-03T01:10:05.553Z,3.9
2018-01-03T01:11:05.843Z,3.9
2018-01-03T01:12:05.558Z,3.9
2018-01-03T01:13:05.565Z,3.9
2018-01-03T01:14:05.550Z,3.9
2018-01-03T01:15:05.854Z,3.9
2018-01-03T01:16:05.606Z,3.9
2018-01-03T01:17:06.282Z,3.9
2018-01-03T01:18:07.617Z,3.9
2018-01-03T01:19:05.785Z,3.9
2018-01-03T01:20:05.740Z,3.9
2018-01-03T01:21:05.768Z,3.9
2018-01-03T01:22:05.434Z,3.9
2018-01-03T01:23:05.918Z,3.9
2018-01-03T01:24:05.719Z,3.9
2018-01-03T01:25:05.628Z,3.9
2018-01-03T01:26:05.475Z,3.9
2018-01-03T01:27:05.918Z,3.8
2018-01-03T01:28:05.678Z,3.8
2018-01-03T01:29:06.165Z,3.9
2018-01-03T01:30:05.770Z,3.9
2018-01-03T01:31:05.559Z,3.9
2018-01-03T01:32:05.637Z,3.9
2018-01-03T01:33:05.672Z,3.9
2018-01-03T01:34:05.677Z,3.9
2018-01-03T01:35:05.530Z,3.8
2018-01-03T01:36:05.782Z,3.8
2018-01-03T01:37:05.648Z,3.9
2018-01-03T01:38:05.707Z,3.9
2018-01-03T01:39:05.766Z,3.9
2018-01-03T01:40:05.638Z,3.9
2018-01-03T01:41:05.853Z,3.9
2018-01-03T01:42:05.603Z,3.9
2018-01-03T01:43:05.680Z,3.9
2018-01-03T01:44:05.390Z,3.9
2018-01-03T01:45:05.692Z,3.9
2018-01-03T01:46:05.671Z,3.9
2018-01-03T01:47:05.683Z,3.9
2018-01-03T01:48:05.684Z,3.9
2018-01-03T01:49:05.696Z,3.9
2018-01-03T01:50:05.659Z,3.9
2018-01-03T01:51:06.068Z,3.9
2018-01-03T01:52:05.909Z,3.9
2018-01-03T01:53:06.641Z,3.9
2018-01-03T01:54:05.635Z,3.9
2018-01-03T01:56:05.619Z,3.9
2018-01-03T01:57:05.657Z,3.9
2018-01-03T01:58:05.683Z,3.9
2018-01-03T01:59:05.432Z,3.9
2018-01-03T02:00:05.636Z,3.9
2018-01-03T02:01:05.675Z,3.9
2018-01-03T02:02:05.657Z,3.9
2018-01-03T02:03:05.614Z,3.9
2018-01-03T02:04:05.884Z,3.9
2018-01-03T02:05:05.410Z,3.9
2018-01-03T02:06:05.666Z,3.9
2018-01-03T02:07:05.645Z,3.9
2018-01-03T02:08:05.441Z,3.9
2018-01-03T02:09:05.641Z,3.9
2018-01-03T02:10:05.928Z,4.0
2018-01-03T02:11:05.864Z,4.0
2018-01-03T02:12:05.418Z,4.0
2018-01-03T02:13:05.945Z,4.0
2018-01-03T02:14:05.702Z,4.0
2018-01-03T02:15:05.921Z,4.0
2018-01-03T02:16:05.538Z,4.0
2018-01-03T02:17:05.649Z,4.0
2018-01-03T02:18:05.896Z,4.0
2018-01-03T02:19:06.477Z,4.0
2018-01-03T02:20:05.748Z,4.0
2018-01-03T02:21:05.514Z,4.0
2018-01-03T02:22:05.726Z,4.0
2018-01-03T02:23:05.524Z,4.0
2018-01-03T02:24:05.922Z,4.0
2018-01-03T02:25:05.528Z,4.0
2018-01-03T02:26:05.950Z,4.0
2018-01-03T02:27:07.243Z,4.0
2018-01-03T02:28:05.667Z,4.1
2018-01-03T02:29:05.752Z,4.1
2018-01-03T02:30:05.706Z,4.1
2018-01-03T02:31:05.969Z,4.1
2018-01-03T02:32:05.762Z,4.1
2018-01-03T02:33:05.734Z,4.1
2018-01-03T02:34:05.689Z,4.1
2018-01-03T02:35:05.763Z,4.1
2018-01-03T02:36:05.503Z,4.1
2018-01-03T02:37:05.598Z,4.1
2018-01-03T02:38:05.699Z,4.1
2018-01-03T02:39:05.983Z,4.1
2018-01-03T02:40:05.512Z,4.1
2018-01-03T02:41:06.007Z,4.1
2018-01-03T02:42:05.958Z,4.1
2018-01-03T02:43:05.614Z,4.1
2018-01-03T02:44:05.485Z,4.1
2018-01-03T02:45:05.556Z,4.1
2018-01-03T02:46:05.975Z,4.1
2018-01-03T02:47:05.796Z,4.1
2018-01-03T02:48:05.532Z,4.2
2018-01-03T02:49:05.589Z,4.2
2018-01-03T02:50:05.469Z,4.2
2018-01-03T02:51:05.755Z,4.2
2018-01-03T02:53:05.816Z,4.3
2018-01-03T02:54:05.500Z,4.3
2018-01-03T02:55:05.615Z,4.3
2018-01-03T02:56:05.711Z,4.3
2018-01-03T02:57:05.577Z,4.3
2018-01-03T02:58:05.711Z,4.4
2018-01-03T02:59:05.628Z,4.4
2018-01-03T03:00:06.023Z,4.4
2018-01-03T03:01:05.830Z,4.4
2018-01-03T03:02:05.726Z,4.4
2018-01-03T03:03:05.785Z,4.4
2018-01-03T03:04:05.997Z,4.4
2018-01-03T03:06:05.749Z,4.5
2018-01-03T03:07:05.784Z,4.5
2018-01-03T03:08:05.758Z,4.5
2018-01-03T03:09:05.643Z,4.5
2018-01-03T03:10:05.752Z,4.5
2018-01-03T03:11:06.088Z,4.4
2018-01-03T03:12:05.851Z,4.4
2018-01-03T03:13:06.558Z,4.4
2018-01-03T03:14:05.596Z,4.4
2018-01-03T03:15:05.792Z,4.4
2018-01-03T03:16:05.570Z,4.5
2018-01-03T03:17:05.835Z,4.5
2018-01-03T03:18:05.755Z,4.5
2018-01-03T03:19:05.783Z,4.5
2018-01-03T03:20:06.292Z,4.5
2018-01-03T03:21:05.781Z,4.6
2018-01-03T03:22:05.808Z,4.6
2018-01-03T03:23:05.633Z,4.6
2018-01-03T03:24:06.063Z,4.6
2018-01-03T03:25:06.141Z,4.6
2018-01-03T03:26:05.806Z,4.6
2018-01-03T03:27:06.493Z,4.6
2018-01-03T03:28:06.076Z,4.6
2018-01-03T03:29:05.630Z,4.7
2018-01-03T03:30:05.693Z,4.7
2018-01-03T03:31:05.828Z,4.7
2018-01-03T03:33:05.636Z,4.7
2018-01-03T03:34:06.040Z,4.7
2018-01-03T03:35:05.846Z,4.7
2018-01-03T03:36:06.109Z,4.7
2018-01-03T03:37:07.312Z,4.7
2018-01-03T03:38:05.785Z,4.7
2018-01-03T03:39:06.080Z,4.7
2018-01-03T03:40:05.801Z,4.7
2018-01-03T03:41:06.109Z,4.7
2018-01-03T03:42:05.805Z,4.7
2018-01-03T03:43:05.876Z,4.7
2018-01-03T03:44:06.072Z,4.7
2018-01-03T03:45:06.123Z,4.7
2018-01-03T03:46:05.584Z,4.7
2018-01-03T03:47:05.845Z,4.8
2018-01-03T03:48:05.660Z,4.8
2018-01-03T03:49:05.656Z,4.8
2018-01-03T03:50:05.628Z,4.8
2018-01-03T03:52:05.824Z,4.8
2018-01-03T03:53:06.143Z,4.8
2018-01-03T03:54:05.664Z,4.8
2018-01-03T03:55:05.850Z,4.8
2018-01-03T03:56:05.847Z,4.8
2018-01-03T03:57:05.629Z,4.9
2018-01-03T03:58:06.100Z,4.9
2018-01-03T03:59:05.826Z,4.9
2018-01-03T04:00:05.611Z,4.9
2018-01-03T04:02:06.101Z,5.1
2018-01-03T04:03:05.628Z,5.1
2018-01-03T04:04:05.603Z,5.2
2018-01-03T04:05:06.758Z,5.2
2018-01-03T04:06:05.880Z,5.2
2018-01-03T04:07:05.967Z,5.2
2018-01-03T04:08:05.618Z,5.2
2018-01-03T04:09:05.888Z,5.2
2018-01-03T04:10:05.689Z,5.2
2018-01-03T04:11:05.884Z,5.2
2018-01-03T04:12:05.856Z,5.2
2018-01-03T04:13:05.720Z,5.2
2018-01-03T04:14:05.835Z,5.2
2018-01-03T04:15:05.894Z,5.3
2018-01-03T04:16:06.094Z,5.3
2018-01-03T04:17:05.681Z,5.4
2018-01-03T04:18:05.889Z,5.4
2018-01-03T04:19:05.696Z,5.4
2018-01-03T04:20:05.655Z,5.4
2018-01-03T04:21:06.286Z,5.4
2018-01-03T04:22:06.112Z,5.4
2018-01-03T04:23:05.868Z,5.4
2018-01-03T04:24:05.654Z,5.4
2018-01-03T04:25:05.669Z,5.6
2018-01-03T04:26:06.139Z,5.6
2018-01-03T04:27:05.872Z,5.6
2018-01-03T04:28:05.659Z,5.6
2018-01-03T04:29:05.908Z,5.6
2018-01-03T04:30:06.128Z,5.7
2018-01-03T04:31:05.839Z,5.7
2018-01-03T04:32:05.664Z,5.8
2018-01-03T04:33:05.885Z,5.8
2018-01-03T04:34:05.865Z,5.8
2018-01-03T04:35:06.191Z,5.8
2018-01-03T04:36:05.859Z,5.8
2018-01-03T04:37:05.653Z,5.8
2018-01-03T04:38:05.920Z,5.8
2018-01-03T04:39:05.672Z,5.8
2018-01-03T04:40:05.933Z,5.8
2018-01-03T04:41:05.679Z,5.8
2018-01-03T04:42:06.138Z,5.8
2018-01-03T04:44:06.238Z,5.9
2018-01-03T04:45:05.699Z,5.9
2018-01-03T04:46:06.214Z,5.9
2018-01-03T04:47:05.944Z,5.9
2018-01-03T04:48:05.931Z,5.9
2018-01-03T04:49:05.897Z,5.9
2018-01-03T04:50:05.915Z,6.0
2018-01-03T04:51:05.919Z,6.0
2018-01-03T04:52:05.974Z,6.0
2018-01-03T04:53:07.847Z,6.0
2018-01-03T04:54:09.554Z,6.0
2018-01-03T04:55:09.722Z,6.0
2018-01-03T04:56:08.041Z,6.0
2018-01-03T04:57:05.796Z,6.0
2018-01-03T04:58:05.953Z,6.0
2018-01-03T04:59:05.949Z,6.0
2018-01-03T05:00:05.985Z,6.1
2018-01-03T05:01:05.779Z,6.1
2018-01-03T05:02:05.997Z,6.1
2018-01-03T05:03:06.231Z,6.1
2018-01-03T05:04:06.229Z,6.1
2018-01-03T05:05:05.937Z,6.1
2018-01-03T05:06:06.254Z,6.1
2018-01-03T05:07:05.984Z,6.1
2018-01-03T05:08:06.016Z,6.1
2018-01-03T05:09:05.744Z,6.1
2018-01-03T05:10:06.231Z,6.1
2018-01-03T05:11:05.959Z,6.2
2018-01-03T05:12:06.209Z,6.2
2018-01-03T05:13:06.286Z,6.2
2018-01-03T05:14:05.991Z,6.2
2018-01-03T05:15:05.960Z,6.2
2018-01-03T05:16:05.964Z,6.2
2018-01-03T05:18:05.976Z,6.2
2018-01-03T05:19:06.243Z,6.2
2018-01-03T05:20:05.823Z,6.2
2018-01-03T05:21:06.053Z,6.3
2018-01-03T05:22:06.425Z,6.3
2018-01-03T05:23:06.264Z,6.4
2018-01-03T05:24:05.797Z,6.4
2018-01-03T05:25:06.017Z,6.4
2018-01-03T05:26:06.025Z,6.4
2018-01-03T05:27:06.286Z,6.4
2018-01-03T05:28:06.048Z,6.5
2018-01-03T05:29:05.990Z,6.5
2018-01-03T05:30:06.000Z,6.5
2018-01-03T05:31:06.035Z,6.6
2018-01-03T05:32:06.052Z,6.6
2018-01-03T05:33:06.025Z,6.7
2018-01-03T05:34:05.791Z,6.7
2018-01-03T05:35:05.968Z,6.7
2018-01-03T05:36:05.856Z,6.7
2018-01-03T05:38:06.034Z,6.7
2018-01-03T05:39:06.038Z,6.8
2018-01-03T05:40:06.290Z,6.8
2018-01-03T05:41:06.314Z,7.0
2018-01-03T05:42:06.033Z,7.0
2018-01-03T05:43:06.010Z,7.0
2018-01-03T05:44:06.298Z,7.1
2018-01-03T05:45:06.301Z,7.1
2018-01-03T05:46:05.866Z,7.1
2018-01-03T05:47:06.036Z,7.1
2018-01-03T05:48:06.312Z,7.1
2018-01-03T05:49:06.024Z,7.2
2018-01-03T05:50:06.621Z,7.2
2018-01-03T05:51:06.014Z,7.2
2018-01-03T05:52:06.055Z,7.2
2018-01-03T05:53:05.870Z,7.2
2018-01-03T05:54:06.111Z,7.2
2018-01-03T05:55:06.096Z,7.2
2018-01-03T05:56:06.044Z,7.2
2018-01-03T05:57:06.047Z,7.2
2018-01-03T05:58:06.419Z,7.2
2018-01-03T05:59:05.868Z,7.3
2018-01-03T06:00:05.918Z,7.3
2018-01-03T06:01:05.914Z,7.3
2018-01-03T06:02:06.057Z,7.3
2018-01-03T06:03:06.380Z,7.3
2018-01-03T06:04:06.040Z,7.4
2018-01-03T06:05:05.882Z,7.4
2018-01-03T06:06:05.870Z,7.6
2018-01-03T06:07:06.074Z,7.6
2018-01-03T06:08:06.291Z,7.6
2018-01-03T06:09:06.353Z,7.6
2018-01-03T06:10:05.896Z,7.6
2018-01-03T06:11:05.904Z,7.6
2018-01-03T06:12:06.097Z,7.6
2018-01-03T06:13:06.418Z,7.6
2018-01-03T06:14:06.115Z,7.7
2018-01-03T06:15:06.406Z,7.7
2018-01-03T06:16:06.452Z,7.7
2018-01-03T06:17:06.102Z,7.7
2018-01-03T06:18:05.916Z,7.7
2018-01-03T06:19:06.106Z,7.8
2018-01-03T06:20:06.095Z,7.8
2018-01-03T06:21:05.901Z,7.8
2018-01-03T06:22:06.112Z,7.8
2018-01-03T06:23:06.486Z,7.8
2018-01-03T06:24:07.048Z,7.8
2018-01-03T06:25:06.158Z,7.8
2018-01-03T06:26:06.087Z,7.8
2018-01-03T06:27:06.112Z,7.9
2018-01-03T06:28:06.382Z,7.9
2018-01-03T06:29:06.369Z,7.9
2018-01-03T06:30:06.100Z,7.9
2018-01-03T06:31:06.430Z,7.9
2018-01-03T06:32:06.120Z,8.0
2018-01-03T06:33:06.410Z,8.0
2018-01-03T06:34:05.881Z,8.2
2018-01-03T06:35:06.016Z,8.2
2018-01-03T06:36:05.958Z,8.2
2018-01-03T06:37:06.432Z,8.2
2018-01-03T06:38:06.176Z,8.2
2018-01-03T06:39:06.241Z,8.2
2018-01-03T06:40:06.183Z,8.4
2018-01-03T06:41:06.162Z,8.4
2018-01-03T06:42:06.170Z,8.4
2018-01-03T06:43:06.033Z,8.4
2018-01-03T06:44:06.169Z,8.4
2018-01-03T06:45:06.467Z,8.4
2018-01-03T06:46:06.429Z,8.4
2018-01-03T06:47:05.990Z,8.3
2018-01-03T06:48:06.556Z,8.3
2018-01-03T06:49:06.494Z,8.3
2018-01-03T06:51:06.957Z,8.3
2018-01-03T06:52:06.023Z,8.2
2018-01-03T06:55:06.600Z,8.3
2018-01-03T06:56:06.174Z,8.3
2018-01-03T06:57:06.161Z,8.3
2018-01-03T06:58:06.566Z,8.3
2018-01-03T06:59:06.170Z,8.3
2018-01-03T07:00:06.619Z,8.4
2018-01-03T07:01:06.119Z,8.4
2018-01-03T07:02:06.642Z,8.5
2018-01-03T07:03:07.194Z,8.5
2018-01-03T07:04:06.251Z,8.5
2018-01-03T07:05:06.213Z,8.5
2018-01-03T07:06:06.012Z,8.5
2018-01-03T07:07:06.578Z,8.8
2018-01-03T07:08:06.335Z,8.8
2018-01-03T07:09:06.282Z,8.8
2018-01-03T07:10:06.332Z,8.8
2018-01-03T07:11:06.565Z,8.8
2018-01-03T07:12:06.674Z,8.8
2018-01-03T07:13:06.640Z,8.9
2018-01-03T07:14:06.083Z,8.9
2018-01-03T07:17:06.576Z,9.0
2018-01-03T07:18:06.612Z,9.0
2018-01-03T07:19:06.086Z,9.0
2018-01-03T07:20:06.332Z,9.1
2018-01-03T07:21:06.341Z,9.1
2018-01-03T07:22:06.396Z,9.1
2018-01-03T07:23:06.116Z,9.2
2018-01-03T07:24:06.866Z,9.2
2018-01-03T07:25:06.314Z,9.2
2018-01-03T07:26:06.141Z,9.2
2018-01-03T07:27:06.313Z,9.2
2018-01-03T07:28:06.752Z,9.2
2018-01-03T07:29:06.613Z,9.2
2018-01-03T07:30:06.623Z,9.5
2018-01-03T07:31:06.366Z,9.5
2018-01-03T07:32:06.316Z,9.5
2018-01-03T07:33:06.310Z,9.6
2018-01-03T07:34:06.327Z,9.6
2018-01-03T07:35:06.319Z,9.8
2018-01-03T07:36:06.288Z,9.8
2018-01-03T07:37:06.294Z,9.8
2018-01-03T07:38:06.657Z,9.8
2018-01-03T07:39:06.282Z,9.8
2018-01-03T07:40:06.380Z,9.8
2018-01-03T07:41:06.109Z,9.9
2018-01-03T07:42:06.120Z,9.9
2018-01-03T07:43:06.118Z,10.0
2018-01-03T07:44:06.313Z,10.0
2018-01-03T07:45:06.317Z,10.0
2018-01-03T07:46:06.112Z,9.9
2018-01-03T07:47:06.309Z,9.9
2018-01-03T07:48:06.609Z,10.0
2018-01-03T07:49:06.709Z,10.0
2018-01-03T07:50:06.129Z,10.0
2018-01-03T07:51:06.405Z,10.1
2018-01-03T07:52:06.648Z,10.1
2018-01-03T07:53:06.287Z,10.3
2018-01-03T07:54:06.643Z,10.3
2018-01-03T07:55:06.362Z,10.3
2018-01-03T07:56:06.664Z,8.6
2018-01-03T07:57:06.523Z,8.6
2018-01-03T07:58:06.617Z,8.6
2018-01-03T07:59:06.151Z,8.6
2018-01-03T08:00:06.624Z,8.6
2018-01-03T08:01:06.325Z,7.5
2018-01-03T08:02:06.692Z,7.5
2018-01-03T08:03:06.929Z,7.1
2018-01-03T08:04:06.672Z,7.1
2018-01-03T08:06:06.318Z,7.0
2018-01-03T08:07:06.280Z,7.0
2018-01-03T08:08:06.123Z,6.8
2018-01-03T08:09:06.585Z,6.8
2018-01-03T08:10:06.143Z,6.8
2018-01-03T08:11:06.353Z,6.8
2018-01-03T08:12:06.645Z,6.8
2018-01-03T08:13:06.327Z,6.8
2018-01-03T08:14:06.633Z,6.6
2018-01-03T08:15:06.181Z,6.6
2018-01-03T08:16:06.650Z,6.7
2018-01-03T08:17:06.356Z,6.7
2018-01-03T08:18:06.641Z,6.7
2018-01-03T08:19:06.535Z,6.6
2018-01-03T08:20:06.659Z,6.6
2018-01-03T08:21:06.345Z,6.4
2018-01-03T08:22:06.656Z,6.4
2018-01-03T08:23:06.168Z,6.4
2018-01-03T08:24:06.677Z,6.4
2018-01-03T08:25:07.122Z,6.4
2018-01-03T08:26:06.299Z,6.4
2018-01-03T08:27:06.371Z,6.4
2018-01-03T08:28:06.374Z,6.4
2018-01-03T08:29:06.376Z,6.4
2018-01-03T08:30:06.357Z,6.4
2018-01-03T08:31:06.390Z,6.4
2018-01-03T08:33:06.356Z,6.4
2018-01-03T08:34:06.645Z,6.4
2018-01-03T08:35:06.389Z,6.4
2018-01-03T08:36:06.635Z,6.4
2018-01-03T08:37:06.354Z,6.4
2018-01-03T08:38:06.668Z,6.4
2018-01-03T08:39:06.172Z,6.4
2018-01-03T08:40:06.344Z,6.4
2018-01-03T08:41:06.406Z,6.4
2018-01-03T08:42:06.390Z,6.4
2018-01-03T08:43:06.169Z,6.4
2018-01-03T08:44:06.628Z,6.3
2018-01-03T08:45:06.230Z,6.3
2018-01-03T08:46:06.238Z,6.3
2018-01-03T08:47:06.360Z,6.3
2018-01-03T08:48:06.706Z,6.3
2018-01-03T08:49:06.212Z,6.2
2018-01-03T08:50:06.183Z,6.2
2018-01-03T08:51:06.204Z,6.2
2018-01-03T08:52:06.464Z,6.2
2018-01-03T08:53:06.209Z,6.2
2018-01-03T08:54:06.671Z,6.2
2018-01-03T08:55:06.415Z,6.2
2018-01-03T08:56:06.400Z,6.2
2018-01-03T08:57:06.699Z,6.2
2018-01-03T08:58:06.460Z,6.2
2018-01-03T08:59:06.201Z,6.2
2018-01-03T09:00:06.434Z,6.2
2018-01-03T09:01:06.436Z,6.2
2018-01-03T09:02:06.414Z,6.2
2018-01-03T09:03:06.520Z,6.2
2018-01-03T09:04:06.246Z,6.1
2018-01-03T09:05:06.226Z,6.1
2018-01-03T09:06:06.676Z,6.1
2018-01-03T09:07:06.719Z,6.1
2018-01-03T09:08:06.670Z,6.1
2018-01-03T09:10:06.236Z,6.1
2018-01-03T09:12:06.936Z,6.1
2018-01-03T09:13:06.257Z,6.1
2018-01-03T09:14:06.809Z,6.1
2018-01-03T09:15:06.514Z,6.1
2018-01-03T09:16:06.398Z,6.1
2018-01-03T09:17:06.236Z,6.1
2018-01-03T09:18:06.276Z,6.1
2018-01-03T09:19:06.237Z,6.1
2018-01-03T09:20:06.267Z,6.1
2018-01-03T09:21:06.457Z,6.1
2018-01-03T09:22:06.223Z,6.4
2018-01-03T09:23:06.527Z,6.4
2018-01-03T09:24:06.288Z,6.4
2018-01-03T09:25:06.258Z,6.4
2018-01-03T09:26:06.652Z,6.4
2018-01-03T09:27:06.286Z,6.5
2018-01-03T09:28:06.260Z,6.5
2018-01-03T09:29:06.461Z,6.5
2018-01-03T09:30:06.286Z,6.5
2018-01-03T09:31:06.721Z,6.5
2018-01-03T09:32:06.473Z,6.6
2018-01-03T09:33:06.457Z,6.6
2018-01-03T09:34:06.480Z,6.6
2018-01-03T09:35:06.476Z,6.6
2018-01-03T09:36:06.279Z,6.6
2018-01-03T09:37:06.468Z,6.5
2018-01-03T09:38:06.500Z,6.5
2018-01-03T09:39:06.472Z,6.5
2018-01-03T09:40:06.557Z,6.4
2018-01-03T09:41:06.741Z,6.4
2018-01-03T09:42:06.821Z,6.4
2018-01-03T09:43:06.476Z,6.4
2018-01-03T09:44:06.778Z,6.4
2018-01-03T09:45:06.505Z,6.4
2018-01-03T09:46:06.542Z,6.4
2018-01-03T09:47:06.415Z,6.4
2018-01-03T09:48:06.537Z,6.4
2018-01-03T09:49:06.566Z,6.4
2018-01-03T09:50:06.599Z,6.3
2018-01-03T09:51:06.514Z,6.3
2018-01-03T09:52:09.459Z,6.3
2018-01-03T09:53:07.901Z,6.3
2018-01-03T09:54:06.546Z,6.3
2018-01-03T09:55:06.511Z,6.3
2018-01-03T09:57:06.508Z,6.3
2018-01-03T09:58:06.788Z,6.3
2018-01-03T09:59:06.999Z,6.3
2018-01-03T10:00:06.793Z,6.3
2018-01-03T10:01:06.592Z,6.3
2018-01-03T10:02:06.302Z,6.3
2018-01-03T10:04:06.328Z,6.4
2018-01-03T10:05:06.503Z,6.7
2018-01-03T10:06:06.524Z,6.7
2018-01-03T10:07:06.812Z,6.7
2018-01-03T10:08:06.540Z,6.7
2018-01-03T10:09:06.842Z,6.7
2018-01-03T10:10:06.604Z,6.7
2018-01-03T10:12:06.825Z,6.7
2018-01-03T10:13:06.829Z,6.8
2018-01-03T10:14:06.856Z,6.8
2018-01-03T10:15:06.853Z,6.8
2018-01-03T10:17:06.668Z,6.6
2018-01-03T10:19:06.363Z,6.8
2018-01-03T10:20:06.410Z,6.8
2018-01-03T10:21:06.567Z,6.8
2018-01-03T10:22:06.594Z,6.8
2018-01-03T10:23:06.577Z,6.4
2018-01-03T10:24:06.511Z,6.4
2018-01-03T10:25:06.775Z,6.4
2018-01-03T10:26:06.879Z,6.4
2018-01-03T10:27:07.237Z,6.4
2018-01-03T10:28:06.331Z,6.4
2018-01-03T10:29:06.535Z,6.4
2018-01-03T10:30:06.327Z,6.4
2018-01-03T10:31:06.581Z,6.4
2018-01-03T10:32:06.529Z,6.4
2018-01-03T10:33:06.358Z,6.5
2018-01-03T10:34:06.588Z,6.5
2018-01-03T10:35:06.434Z,6.5
2018-01-03T10:36:06.765Z,6.5
2018-01-03T10:37:06.804Z,6.5
2018-01-03T10:38:06.588Z,6.4
2018-01-03T10:39:06.568Z,6.4
2018-01-03T10:40:06.579Z,6.4
2018-01-03T10:41:07.428Z,6.4
2018-01-03T10:42:06.358Z,6.4
2018-01-03T10:43:06.581Z,6.4
2018-01-03T10:44:06.404Z,6.5
2018-01-03T10:45:06.577Z,6.5
2018-01-03T10:46:06.856Z,6.5
2018-01-03T10:47:06.361Z,6.5
2018-01-03T10:48:06.862Z,6.5
2018-01-03T10:49:06.589Z,6.7
2018-01-03T10:50:06.602Z,6.7
2018-01-03T10:51:06.539Z,6.8
2018-01-03T10:52:06.562Z,6.8
2018-01-03T10:53:06.955Z,6.8
2018-01-03T10:54:06.966Z,6.7
2018-01-03T10:55:07.648Z,6.7
2018-01-03T10:56:06.631Z,6.8
2018-01-03T10:57:06.856Z,6.8
2018-01-03T10:59:06.874Z,6.7
2018-01-03T11:00:06.443Z,6.7
2018-01-03T11:01:06.622Z,6.6
2018-01-03T11:02:06.580Z,6.6
2018-01-03T11:03:06.668Z,6.6
2018-01-03T11:04:06.902Z,6.6
2018-01-03T11:05:06.671Z,6.6
2018-01-03T11:06:06.686Z,6.5
2018-01-03T11:07:06.489Z,6.5
2018-01-03T11:08:06.855Z,6.5
2018-01-03T11:10:06.618Z,6.5
2018-01-03T11:11:06.970Z,6.4
2018-01-03T11:12:06.681Z,6.4
2018-01-03T11:13:06.468Z,6.4
2018-01-03T11:14:06.434Z,6.4
2018-01-03T11:15:06.978Z,6.4
2018-01-03T11:16:06.689Z,6.4
2018-01-03T11:17:06.625Z,6.2
2018-01-03T11:18:06.695Z,6.2
2018-01-03T11:19:06.670Z,6.3
2018-01-03T11:20:06.699Z,6.3
2018-01-03T11:21:06.669Z,6.3
2018-01-03T11:22:06.685Z,6.3
2018-01-03T11:23:07.017Z,6.3
2018-01-03T11:24:06.715Z,6.2
2018-01-03T11:25:06.963Z,6.2
2018-01-03T11:26:06.664Z,6.2
2018-01-03T11:27:06.480Z,6.2
2018-01-03T11:28:07.331Z,6.2
2018-01-03T11:29:06.761Z,6.2
2018-01-03T11:30:06.632Z,6.2
2018-01-03T11:31:06.563Z,6.2
2018-01-03T11:32:06.485Z,6.0
2018-01-03T11:33:07.136Z,6.0
2018-01-03T11:34:06.513Z,6.1
2018-01-03T11:36:06.694Z,6.1
2018-01-03T11:37:06.648Z,6.2
2018-01-03T11:38:06.672Z,6.2
2018-01-03T11:39:06.690Z,6.1
2018-01-03T11:40:06.538Z,6.1
2018-01-03T11:41:06.802Z,6.1
2018-01-03T11:42:06.727Z,6.0
2018-01-03T11:43:06.679Z,6.0
2018-01-03T11:44:06.758Z,6.0
2018-01-03T11:45:07.284Z,6.0
2018-01-03T11:46:07.280Z,6.0
2018-01-03T11:47:06.859Z,6.1
2018-01-03T11:48:06.690Z,6.1
2018-01-03T11:49:06.918Z,6.1
2018-01-03T11:50:06.737Z,6.0
2018-01-03T11:51:07.390Z,6.0
2018-01-03T11:53:06.849Z,6.0
2018-01-03T11:54:07.257Z,6.0
2018-01-03T11:55:06.759Z,6.0
2018-01-03T11:56:06.776Z,6.0
2018-01-03T11:57:06.642Z,6.0
2018-01-03T11:58:06.709Z,6.0
2018-01-03T11:59:06.727Z,6.0
2018-01-03T12:00:06.787Z,6.0
2018-01-03T12:01:06.759Z,6.0
2018-01-03T12:02:08.311Z,6.0
2018-01-03T12:03:06.701Z,6.0
2018-01-03T12:04:06.741Z,6.0
2018-01-03T12:05:07.070Z,6.0
2018-01-03T12:06:07.073Z,6.0
2018-01-03T12:07:06.770Z,5.9
2018-01-03T12:09:06.612Z,5.9
2018-01-03T12:10:06.807Z,6.0
2018-01-03T12:11:06.787Z,6.0
2018-01-03T12:12:07.002Z,6.0
2018-01-03T12:13:06.524Z,6.0
2018-01-03T12:14:06.558Z,6.0
2018-01-03T12:15:06.749Z,5.9
2018-01-03T12:17:06.733Z,5.9
2018-01-03T12:18:10.119Z,6.0
2018-01-03T12:19:07.073Z,6.0
2018-01-03T12:20:08.436Z,6.1
2018-01-03T12:21:16.701Z,6.1
2018-01-03T12:22:08.863Z,6.1
2018-01-03T12:23:07.495Z,6.3
2018-01-03T12:24:07.463Z,6.3
2018-01-03T12:25:07.649Z,6.2
2018-01-03T12:26:07.548Z,6.2
2018-01-03T12:27:07.704Z,6.2
2018-01-03T12:28:07.558Z,6.3
2018-01-03T12:29:06.998Z,6.3
2018-01-03T12:30:07.182Z,6.3
2018-01-03T12:31:06.861Z,6.3
2018-01-03T12:32:06.832Z,6.3
2018-01-03T12:33:06.595Z,6.2
2018-01-03T12:34:06.810Z,6.2
2018-01-03T12:35:07.173Z,6.3
2018-01-03T12:36:06.800Z,6.3
2018-01-03T12:37:08.559Z,6.3
2018-01-03T12:38:06.822Z,6.3
2018-01-03T12:41:07.099Z,6.5
2018-01-03T12:42:08.143Z,6.5
2018-01-03T12:43:07.609Z,6.5
2018-01-03T12:44:07.127Z,6.5
2018-01-03T12:45:07.041Z,6.5
2018-01-03T12:46:07.095Z,6.5
2018-01-03T12:47:06.632Z,6.5
2018-01-03T12:48:07.116Z,6.5
2018-01-03T12:49:06.738Z,6.5
2018-01-03T12:50:06.961Z,6.5
2018-01-03T12:52:06.822Z,6.5
2018-01-03T12:53:06.879Z,6.6
2018-01-03T12:54:06.874Z,6.6
2018-01-03T12:55:07.217Z,6.6
2018-01-03T12:56:07.171Z,6.6
2018-01-03T12:57:07.180Z,6.6
2018-01-03T12:58:06.919Z,6.7
2018-01-03T12:59:07.606Z,6.7
2018-01-03T13:01:07.517Z,6.7
2018-01-03T13:02:07.096Z,6.7
2018-01-03T13:03:07.075Z,6.6
2018-01-03T13:04:07.360Z,6.6
2018-01-03T13:06:07.183Z,6.7
2018-01-03T13:07:06.842Z,6.7
2018-01-03T13:08:06.851Z,6.6
2018-01-03T13:09:07.117Z,6.6
2018-01-03T13:10:06.870Z,6.6
2018-01-03T13:11:06.627Z,6.6
2018-01-03T13:12:06.849Z,6.6
2018-01-03T13:13:06.967Z,6.6
2018-01-03T13:14:06.809Z,6.6
2018-01-03T13:15:06.849Z,6.6
2018-01-03T13:16:07.119Z,6.7
2018-01-03T13:17:06.869Z,6.7
2018-01-03T13:18:06.645Z,6.7
2018-01-03T13:19:06.855Z,6.6
2018-01-03T13:20:06.809Z,6.6
2018-01-03T13:21:07.095Z,6.8
2018-01-03T13:22:07.265Z,6.8
2018-01-03T13:23:06.920Z,6.8
2018-01-03T13:24:06.686Z,6.8
2018-01-03T13:25:06.939Z,6.8
2018-01-03T13:27:06.830Z,6.8
2018-01-03T13:28:06.876Z,6.8
2018-01-03T13:29:06.840Z,6.8
2018-01-03T13:30:06.880Z,6.8
2018-01-03T13:31:06.929Z,6.7
2018-01-03T13:32:06.965Z,6.7
2018-01-03T13:33:06.882Z,6.7
2018-01-03T13:34:06.995Z,6.7
2018-01-03T13:35:06.858Z,6.7
2018-01-03T13:36:07.147Z,6.7
2018-01-03T13:37:06.857Z,6.7
2018-01-03T13:38:06.908Z,6.7
2018-01-03T13:40:06.737Z,6.7
2018-01-03T13:41:07.172Z,6.5
2018-01-03T13:42:06.926Z,6.5
2018-01-03T13:43:06.950Z,6.5
2018-01-03T13:44:06.955Z,6.6
2018-01-03T13:45:06.891Z,6.6
2018-01-03T13:47:06.741Z,6.7
2018-01-03T13:49:06.971Z,6.7
2018-01-03T13:50:07.069Z,6.7
2018-01-03T13:51:07.325Z,6.7
2018-01-03T13:52:07.101Z,6.8
2018-01-03T13:53:07.055Z,6.8
2018-01-03T13:54:07.858Z,6.8
2018-01-03T13:55:07.379Z,6.8
2018-01-03T13:56:07.144Z,6.8
2018-01-03T13:57:07.361Z,6.7
2018-01-03T13:58:07.745Z,6.7
2018-01-03T13:59:07.007Z,6.8
2018-01-03T14:01:06.940Z,6.8
2018-01-03T14:03:06.836Z,6.6
2018-01-03T14:04:07.177Z,6.6
2018-01-03T14:05:06.919Z,6.6
2018-01-03T14:06:07.733Z,6.6
2018-01-03T14:07:07.378Z,6.6
2018-01-03T14:08:07.307Z,6.6
2018-01-03T14:11:07.104Z,6.5
2018-01-03T14:12:07.202Z,6.4
2018-01-03T14:14:08.262Z,6.2
2018-01-03T14:15:07.348Z,6.2
2018-01-03T14:18:07.491Z,6.2
2018-01-03T14:19:07.506Z,6.2
2018-01-03T14:20:07.178Z,6.3
2018-01-03T14:21:07.376Z,6.3
2018-01-03T14:22:07.464Z,6.4
2018-01-03T14:23:06.903Z,6.4
2018-01-03T14:25:07.336Z,6.4
2018-01-03T14:26:07.130Z,6.4
2018-01-03T14:27:07.406Z,6.4
2018-01-03T14:28:07.366Z,6.4
2018-01-03T14:29:06.864Z,6.4
2018-01-03T14:30:07.162Z,6.4
2018-01-03T14:32:07.204Z,6.1
2018-01-03T14:33:07.390Z,6.1
2018-01-03T14:34:07.449Z,6.1
2018-01-03T14:35:07.707Z,6.0
2018-01-03T14:36:08.110Z,6.0